Terminal Aerodrome Forecast
Issued by NWS Billings, MT

Home | Current Version | Previous Version | Text Only | Print | Product List | Glossary On
Versions: 1 2 3 4 5 6 7 8 9 10 11 12 13 14 15 16 17 18 19 20 21 22 23
000
FTUS45 KBYZ 210520
TAFSHR
TAF
KSHR 210520Z 2106/2206 VRB03KT P6SM SCT080 BKN120
     FM211500 23006KT P6SM VCSH SCT040 OVC100
     FM212100 30022G32KT P6SM SCT080 BKN150=

USA.gov is the U.S. government's official web portal to all federal, state and local government web resources and services.